sensor_id;sensor_type;location;lat;lon;timestamp;P1;durP1;ratioP1;P2;durP2;ratioP2
10041;SDS011;5061;49.068;12.058;2023-04-25T00:02:19;1.83;;;1.57;;
10041;SDS011;5061;49.068;12.058;2023-04-25T00:05:40;1.73;;;1.63;;
10041;SDS011;5061;49.068;12.058;2023-04-25T00:09:01;2.33;;;1.73;;
10041;SDS011;5061;49.068;12.058;2023-04-25T00:12:23;1.20;;;1.10;;
10041;SDS011;5061;49.068;12.058;2023-04-25T00:15:44;1.23;;;1.13;;
10041;SDS011;5061;49.068;12.058;2023-04-25T00:19:06;1.60;;;1.30;;
10041;SDS011;5061;49.068;12.058;2023-04-25T00:22:27;1.70;;;1.30;;
10041;SDS011;5061;49.068;12.058;2023-04-25T00:25:48;1.17;;;1.07;;
10041;SDS011;5061;49.068;12.058;2023-04-25T00:29:09;0.97;;;0.97;;
10041;SDS011;5061;49.068;12.058;2023-04-25T00:32:30;1.47;;;1.10;;
10041;SDS011;5061;49.068;12.058;2023-04-25T00:35:51;1.67;;;1.57;;
10041;SDS011;5061;49.068;12.058;2023-04-25T00:39:11;1.20;;;1.10;;
10041;SDS011;5061;49.068;12.058;2023-04-25T00:42:32;1.00;;;0.90;;
10041;SDS011;5061;49.068;12.058;2023-04-25T00:45:53;1.10;;;1.00;;
10041;SDS011;5061;49.068;12.058;2023-04-25T00:49:15;1.13;;;1.03;;
10041;SDS011;5061;49.068;12.058;2023-04-25T00:52:40;1.20;;;1.10;;
10041;SDS011;5061;49.068;12.058;2023-04-25T00:56:02;1.20;;;1.10;;
10041;SDS011;5061;49.068;12.058;2023-04-25T00:59:24;2.70;;;1.00;;
10041;SDS011;5061;49.068;12.058;2023-04-25T01:02:45;1.50;;;1.23;;
10041;SDS011;5061;49.068;12.058;2023-04-25T01:06:07;1.93;;;1.40;;
10041;SDS011;5061;49.068;12.058;2023-04-25T01:09:30;1.20;;;1.10;;
10041;SDS011;5061;49.068;12.058;2023-04-25T01:12:51;1.23;;;1.00;;
10041;SDS011;5061;49.068;12.058;2023-04-25T01:16:12;1.10;;;1.00;;
10041;SDS011;5061;49.068;12.058;2023-04-25T01:19:33;1.30;;;1.00;;
10041;SDS011;5061;49.068;12.058;2023-04-25T01:22:54;1.20;;;1.03;;
10041;SDS011;5061;49.068;12.058;2023-04-25T01:26:15;1.13;;;1.03;;
10041;SDS011;5061;49.068;12.058;2023-04-25T01:29:36;1.00;;;0.90;;
10041;SDS011;5061;49.068;12.058;2023-04-25T01:32:57;1.03;;;0.93;;
10041;SDS011;5061;49.068;12.058;2023-04-25T01:36:20;1.23;;;1.00;;
10041;SDS011;5061;49.068;12.058;2023-04-25T01:39:42;1.20;;;1.10;;
10041;SDS011;5061;49.068;12.058;2023-04-25T01:43:02;1.33;;;0.90;;
10041;SDS011;5061;49.068;12.058;2023-04-25T01:46:23;1.07;;;0.97;;
10041;SDS011;5061;49.068;12.058;2023-04-25T01:49:44;1.70;;;1.60;;
10041;SDS011;5061;49.068;12.058;2023-04-25T01:53:05;1.47;;;1.23;;
10041;SDS011;5061;49.068;12.058;2023-04-25T01:56:30;2.27;;;1.60;;
10041;SDS011;5061;49.068;12.058;2023-04-25T01:59:52;3.27;;;1.90;;
10041;SDS011;5061;49.068;12.058;2023-04-25T02:03:21;1.57;;;1.47;;
10041;SDS011;5061;49.068;12.058;2023-04-25T02:06:41;1.50;;;1.40;;
10041;SDS011;5061;49.068;12.058;2023-04-25T02:10:02;1.63;;;1.23;;
10041;SDS011;5061;49.068;12.058;2023-04-25T02:13:23;2.43;;;1.77;;
10041;SDS011;5061;49.068;12.058;2023-04-25T02:16:44;2.33;;;1.73;;
10041;SDS011;5061;49.068;12.058;2023-04-25T02:20:06;2.50;;;2.00;;
10041;SDS011;5061;49.068;12.058;2023-04-25T02:23:27;2.30;;;2.03;;
10041;SDS011;5061;49.068;12.058;2023-04-25T02:26:48;3.03;;;1.80;;
10041;SDS011;5061;49.068;12.058;2023-04-25T02:30:09;2.50;;;2.10;;
10041;SDS011;5061;49.068;12.058;2023-04-25T02:33:30;2.50;;;2.20;;
10041;SDS011;5061;49.068;12.058;2023-04-25T02:36:51;5.20;;;2.30;;
10041;SDS011;5061;49.068;12.058;2023-04-25T02:40:11;1.53;;;1.43;;
10041;SDS011;5061;49.068;12.058;2023-04-25T02:43:32;3.03;;;2.17;;
10041;SDS011;5061;49.068;12.058;2023-04-25T02:46:53;2.13;;;1.93;;
10041;SDS011;5061;49.068;12.058;2023-04-25T02:50:13;2.30;;;2.00;;
10041;SDS011;5061;49.068;12.058;2023-04-25T02:53:34;1.93;;;1.80;;
10041;SDS011;5061;49.068;12.058;2023-04-25T02:56:54;2.10;;;1.90;;
10041;SDS011;5061;49.068;12.058;2023-04-25T03:00:15;2.37;;;2.07;;
10041;SDS011;5061;49.068;12.058;2023-04-25T03:03:36;2.27;;;2.07;;
10041;SDS011;5061;49.068;12.058;2023-04-25T03:06:56;1.30;;;1.20;;
10041;SDS011;5061;49.068;12.058;2023-04-25T03:10:17;1.73;;;1.63;;
10041;SDS011;5061;49.068;12.058;2023-04-25T03:13:37;3.03;;;1.90;;
10041;SDS011;5061;49.068;12.058;2023-04-25T03:16:58;1.63;;;1.50;;
10041;SDS011;5061;49.068;12.058;2023-04-25T03:20:19;1.60;;;1.50;;
10041;SDS011;5061;49.068;12.058;2023-04-25T03:23:39;2.57;;;1.60;;
10041;SDS011;5061;49.068;12.058;2023-04-25T03:27:00;1.00;;;0.90;;
10041;SDS011;5061;49.068;12.058;2023-04-25T03:30:21;2.70;;;1.63;;
10041;SDS011;5061;49.068;12.058;2023-04-25T03:33:41;1.60;;;1.47;;
10041;SDS011;5061;49.068;12.058;2023-04-25T03:37:02;2.33;;;1.90;;
10041;SDS011;5061;49.068;12.058;2023-04-25T03:40:23;2.80;;;1.80;;
10041;SDS011;5061;49.068;12.058;2023-04-25T03:43:43;1.77;;;1.60;;
10041;SDS011;5061;49.068;12.058;2023-04-25T03:47:04;1.53;;;1.43;;
10041;SDS011;5061;49.068;12.058;2023-04-25T03:50:25;1.87;;;1.77;;
10041;SDS011;5061;49.068;12.058;2023-04-25T03:53:45;3.17;;;2.10;;
10041;SDS011;5061;49.068;12.058;2023-04-25T03:57:06;2.50;;;2.27;;
10041;SDS011;5061;49.068;12.058;2023-04-25T04:00:27;3.20;;;2.03;;
10041;SDS011;5061;49.068;12.058;2023-04-25T04:03:47;1.90;;;1.70;;
10041;SDS011;5061;49.068;12.058;2023-04-25T04:07:08;3.40;;;2.00;;
10041;SDS011;5061;49.068;12.058;2023-04-25T04:10:30;3.50;;;2.10;;
10041;SDS011;5061;49.068;12.058;2023-04-25T04:13:50;3.07;;;1.60;;
10041;SDS011;5061;49.068;12.058;2023-04-25T04:17:11;2.40;;;1.80;;
10041;SDS011;5061;49.068;12.058;2023-04-25T04:20:31;1.80;;;1.63;;
10041;SDS011;5061;49.068;12.058;2023-04-25T04:23:52;3.80;;;2.03;;
10041;SDS011;5061;49.068;12.058;2023-04-25T04:27:14;2.50;;;2.13;;
10041;SDS011;5061;49.068;12.058;2023-04-25T04:30:34;3.00;;;1.97;;
10041;SDS011;5061;49.068;12.058;2023-04-25T04:33:57;1.67;;;1.57;;
10041;SDS011;5061;49.068;12.058;2023-04-25T04:37:18;1.90;;;1.77;;
10041;SDS011;5061;49.068;12.058;2023-04-25T04:40:38;4.20;;;1.90;;
10041;SDS011;5061;49.068;12.058;2023-04-25T04:43:59;3.73;;;1.80;;
10041;SDS011;5061;49.068;12.058;2023-04-25T04:47:21;1.53;;;1.43;;
10041;SDS011;5061;49.068;12.058;2023-04-25T04:50:43;1.77;;;1.60;;
10041;SDS011;5061;49.068;12.058;2023-04-25T04:54:07;1.50;;;1.40;;
10041;SDS011;5061;49.068;12.058;2023-04-25T04:57:28;1.73;;;1.60;;
10041;SDS011;5061;49.068;12.058;2023-04-25T05:00:48;1.63;;;1.40;;
10041;SDS011;5061;49.068;12.058;2023-04-25T05:04:09;1.50;;;1.40;;
10041;SDS011;5061;49.068;12.058;2023-04-25T05:07:30;3.93;;;1.67;;
10041;SDS011;5061;49.068;12.058;2023-04-25T05:10:51;1.40;;;1.30;;
10041;SDS011;5061;49.068;12.058;2023-04-25T05:14:11;1.57;;;1.47;;
10041;SDS011;5061;49.068;12.058;2023-04-25T05:17:32;3.70;;;2.10;;
10041;SDS011;5061;49.068;12.058;2023-04-25T05:20:53;2.47;;;1.90;;
10041;SDS011;5061;49.068;12.058;2023-04-25T05:24:13;1.60;;;1.50;;
10041;SDS011;5061;49.068;12.058;2023-04-25T05:27:34;2.00;;;1.80;;
10041;SDS011;5061;49.068;12.058;2023-04-25T05:30:56;1.70;;;1.60;;
10041;SDS011;5061;49.068;12.058;2023-04-25T05:34:16;2.30;;;1.60;;
10041;SDS011;5061;49.068;12.058;2023-04-25T05:37:37;2.43;;;1.83;;
10041;SDS011;5061;49.068;12.058;2023-04-25T05:40:58;2.30;;;2.10;;
10041;SDS011;5061;49.068;12.058;2023-04-25T05:44:18;2.27;;;2.07;;
10041;SDS011;5061;49.068;12.058;2023-04-25T05:47:39;2.93;;;2.40;;
10041;SDS011;5061;49.068;12.058;2023-04-25T05:51:00;4.10;;;2.20;;
10041;SDS011;5061;49.068;12.058;2023-04-25T05:54:20;2.73;;;2.43;;
10041;SDS011;5061;49.068;12.058;2023-04-25T05:57:41;3.73;;;2.30;;
10041;SDS011;5061;49.068;12.058;2023-04-25T06:01:04;2.60;;;2.33;;
10041;SDS011;5061;49.068;12.058;2023-04-25T06:04:25;3.20;;;2.60;;
10041;SDS011;5061;49.068;12.058;2023-04-25T06:07:46;3.00;;;2.40;;
10041;SDS011;5061;49.068;12.058;2023-04-25T06:11:06;3.00;;;2.67;;
10041;SDS011;5061;49.068;12.058;2023-04-25T06:14:27;4.80;;;3.20;;
10041;SDS011;5061;49.068;12.058;2023-04-25T06:17:49;3.33;;;2.30;;
10041;SDS011;5061;49.068;12.058;2023-04-25T06:21:09;3.33;;;2.70;;
10041;SDS011;5061;49.068;12.058;2023-04-25T06:24:30;6.03;;;2.40;;
10041;SDS011;5061;49.068;12.058;2023-04-25T06:27:51;4.70;;;2.60;;
10041;SDS011;5061;49.068;12.058;2023-04-25T06:31:11;4.30;;;2.90;;
10041;SDS011;5061;49.068;12.058;2023-04-25T06:34:32;3.63;;;2.97;;
10041;SDS011;5061;49.068;12.058;2023-04-25T06:37:52;3.10;;;2.80;;
10041;SDS011;5061;49.068;12.058;2023-04-25T06:41:13;4.90;;;2.70;;
10041;SDS011;5061;49.068;12.058;2023-04-25T06:44:33;2.63;;;2.43;;
10041;SDS011;5061;49.068;12.058;2023-04-25T06:47:54;3.60;;;2.90;;
10041;SDS011;5061;49.068;12.058;2023-04-25T06:51:15;3.17;;;2.70;;
10041;SDS011;5061;49.068;12.058;2023-04-25T06:54:35;4.60;;;3.00;;
10041;SDS011;5061;49.068;12.058;2023-04-25T06:57:56;3.23;;;2.40;;
10041;SDS011;5061;49.068;12.058;2023-04-25T07:01:16;3.63;;;3.30;;
10041;SDS011;5061;49.068;12.058;2023-04-25T07:04:37;4.23;;;3.33;;
10041;SDS011;5061;49.068;12.058;2023-04-25T07:07:58;6.50;;;3.60;;
10041;SDS011;5061;49.068;12.058;2023-04-25T07:11:18;3.13;;;2.80;;
10041;SDS011;5061;49.068;12.058;2023-04-25T07:14:39;6.90;;;3.67;;
10041;SDS011;5061;49.068;12.058;2023-04-25T07:18:00;3.90;;;3.10;;
10041;SDS011;5061;49.068;12.058;2023-04-25T07:21:20;3.50;;;3.07;;
10041;SDS011;5061;49.068;12.058;2023-04-25T07:24:41;4.20;;;2.90;;
10041;SDS011;5061;49.068;12.058;2023-04-25T07:28:02;5.10;;;3.13;;
10041;SDS011;5061;49.068;12.058;2023-04-25T07:31:22;3.03;;;2.60;;
10041;SDS011;5061;49.068;12.058;2023-04-25T07:34:43;2.83;;;2.53;;
10041;SDS011;5061;49.068;12.058;2023-04-25T07:38:04;3.87;;;2.87;;
10041;SDS011;5061;49.068;12.058;2023-04-25T07:41:26;3.80;;;3.17;;
10041;SDS011;5061;49.068;12.058;2023-04-25T07:44:47;2.93;;;2.60;;
10041;SDS011;5061;49.068;12.058;2023-04-25T07:48:07;3.00;;;2.50;;
10041;SDS011;5061;49.068;12.058;2023-04-25T07:51:28;8.40;;;2.30;;
10041;SDS011;5061;49.068;12.058;2023-04-25T07:54:48;3.53;;;2.80;;
10041;SDS011;5061;49.068;12.058;2023-04-25T07:58:09;5.50;;;2.77;;
10041;SDS011;5061;49.068;12.058;2023-04-25T08:01:31;2.60;;;2.40;;
10041;SDS011;5061;49.068;12.058;2023-04-25T08:04:52;2.73;;;2.20;;
10041;SDS011;5061;49.068;12.058;2023-04-25T08:08:12;3.40;;;2.83;;
10041;SDS011;5061;49.068;12.058;2023-04-25T08:11:33;3.07;;;2.70;;
10041;SDS011;5061;49.068;12.058;2023-04-25T08:14:53;4.40;;;2.50;;
10041;SDS011;5061;49.068;12.058;2023-04-25T08:18:14;2.57;;;2.27;;
10041;SDS011;5061;49.068;12.058;2023-04-25T08:21:35;2.90;;;2.60;;
10041;SDS011;5061;49.068;12.058;2023-04-25T08:24:55;2.13;;;1.93;;
10041;SDS011;5061;49.068;12.058;2023-04-25T08:28:16;2.37;;;1.90;;
10041;SDS011;5061;49.068;12.058;2023-04-25T08:31:37;4.80;;;2.70;;
10041;SDS011;5061;49.068;12.058;2023-04-25T08:34:58;2.60;;;2.13;;
10041;SDS011;5061;49.068;12.058;2023-04-25T08:38:19;3.00;;;2.70;;
10041;SDS011;5061;49.068;12.058;2023-04-25T08:41:40;3.40;;;2.60;;
10041;SDS011;5061;49.068;12.058;2023-04-25T08:45:01;3.20;;;2.57;;
10041;SDS011;5061;49.068;12.058;2023-04-25T08:48:23;4.97;;;2.93;;
10041;SDS011;5061;49.068;12.058;2023-04-25T08:51:46;2.03;;;1.83;;
10041;SDS011;5061;49.068;12.058;2023-04-25T08:55:07;3.60;;;2.23;;
10041;SDS011;5061;49.068;12.058;2023-04-25T08:58:30;2.40;;;2.20;;
10041;SDS011;5061;49.068;12.058;2023-04-25T09:01:52;3.30;;;2.47;;
10041;SDS011;5061;49.068;12.058;2023-04-25T09:05:13;2.30;;;2.10;;
10041;SDS011;5061;49.068;12.058;2023-04-25T09:08:35;3.90;;;2.83;;
10041;SDS011;5061;49.068;12.058;2023-04-25T09:11:57;5.10;;;2.53;;
10041;SDS011;5061;49.068;12.058;2023-04-25T09:15:18;2.80;;;2.23;;
10041;SDS011;5061;49.068;12.058;2023-04-25T09:18:38;1.90;;;1.70;;
10041;SDS011;5061;49.068;12.058;2023-04-25T09:22:00;2.33;;;2.13;;
10041;SDS011;5061;49.068;12.058;2023-04-25T09:25:22;3.37;;;2.70;;
10041;SDS011;5061;49.068;12.058;2023-04-25T09:28:45;2.20;;;2.00;;
10041;SDS011;5061;49.068;12.058;2023-04-25T09:32:41;4.83;;;2.87;;
10041;SDS011;5061;49.068;12.058;2023-04-25T09:35:54;2.83;;;2.40;;
10041;SDS011;5061;49.068;12.058;2023-04-25T09:39:28;3.03;;;2.60;;
10041;SDS011;5061;49.068;12.058;2023-04-25T09:42:48;2.73;;;2.40;;
10041;SDS011;5061;49.068;12.058;2023-04-25T09:46:09;4.33;;;2.23;;
10041;SDS011;5061;49.068;12.058;2023-04-25T09:49:31;2.87;;;2.43;;
10041;SDS011;5061;49.068;12.058;2023-04-25T09:53:04;2.47;;;2.13;;
10041;SDS011;5061;49.068;12.058;2023-04-25T09:56:25;2.20;;;1.90;;
10041;SDS011;5061;49.068;12.058;2023-04-25T09:59:50;4.37;;;1.70;;
10041;SDS011;5061;49.068;12.058;2023-04-25T10:03:11;3.27;;;1.87;;
10041;SDS011;5061;49.068;12.058;2023-04-25T10:06:33;1.90;;;1.67;;
10041;SDS011;5061;49.068;12.058;2023-04-25T10:09:59;2.60;;;1.97;;
10041;SDS011;5061;49.068;12.058;2023-04-25T10:13:22;2.00;;;1.80;;
10041;SDS011;5061;49.068;12.058;2023-04-25T10:16:43;6.17;;;1.87;;
10041;SDS011;5061;49.068;12.058;2023-04-25T10:20:05;2.10;;;1.90;;
10041;SDS011;5061;49.068;12.058;2023-04-25T10:23:30;5.70;;;2.87;;
10041;SDS011;5061;49.068;12.058;2023-04-25T10:26:52;3.77;;;3.17;;
10041;SDS011;5061;49.068;12.058;2023-04-25T10:30:13;3.83;;;3.03;;
10041;SDS011;5061;49.068;12.058;2023-04-25T10:33:35;2.30;;;2.10;;
10041;SDS011;5061;49.068;12.058;2023-04-25T10:36:57;4.70;;;2.37;;
10041;SDS011;5061;49.068;12.058;2023-04-25T10:40:21;2.00;;;1.77;;
10041;SDS011;5061;49.068;12.058;2023-04-25T10:43:43;2.23;;;2.03;;
10041;SDS011;5061;49.068;12.058;2023-04-25T10:47:06;1.80;;;1.70;;
10041;SDS011;5061;49.068;12.058;2023-04-25T10:50:36;3.33;;;2.30;;
10041;SDS011;5061;49.068;12.058;2023-04-25T10:54:03;5.63;;;2.60;;
10041;SDS011;5061;49.068;12.058;2023-04-25T11:00:51;1.87;;;1.70;;
10041;SDS011;5061;49.068;12.058;2023-04-25T11:07:49;1.77;;;1.60;;
10041;SDS011;5061;49.068;12.058;2023-04-25T11:11:17;2.17;;;1.97;;
10041;SDS011;5061;49.068;12.058;2023-04-25T11:14:38;1.60;;;1.43;;
10041;SDS011;5061;49.068;12.058;2023-04-25T11:17:59;1.90;;;1.50;;
10041;SDS011;5061;49.068;12.058;2023-04-25T11:21:20;2.17;;;1.70;;
10041;SDS011;5061;49.068;12.058;2023-04-25T11:24:40;2.13;;;1.80;;
10041;SDS011;5061;49.068;12.058;2023-04-25T11:28:02;3.70;;;1.50;;
10041;SDS011;5061;49.068;12.058;2023-04-25T11:31:24;2.07;;;1.50;;
10041;SDS011;5061;49.068;12.058;2023-04-25T11:34:45;7.13;;;2.47;;
10041;SDS011;5061;49.068;12.058;2023-04-25T11:38:07;2.37;;;2.17;;
10041;SDS011;5061;49.068;12.058;2023-04-25T11:41:28;8.30;;;1.83;;
10041;SDS011;5061;49.068;12.058;2023-04-25T11:44:50;2.20;;;2.00;;
10041;SDS011;5061;49.068;12.058;2023-04-25T11:48:11;2.30;;;1.57;;
10041;SDS011;5061;49.068;12.058;2023-04-25T11:51:43;4.70;;;1.93;;
10041;SDS011;5061;49.068;12.058;2023-04-25T11:55:09;4.50;;;2.03;;
10041;SDS011;5061;49.068;12.058;2023-04-25T11:58:32;2.00;;;1.67;;
10041;SDS011;5061;49.068;12.058;2023-04-25T12:02:23;1.80;;;1.70;;
10041;SDS011;5061;49.068;12.058;2023-04-25T12:05:45;2.53;;;1.73;;
10041;SDS011;5061;49.068;12.058;2023-04-25T12:09:07;2.47;;;1.70;;
10041;SDS011;5061;49.068;12.058;2023-04-25T12:12:32;4.23;;;2.20;;
10041;SDS011;5061;49.068;12.058;2023-04-25T12:15:54;2.33;;;1.90;;
10041;SDS011;5061;49.068;12.058;2023-04-25T12:19:15;2.07;;;1.63;;
10041;SDS011;5061;49.068;12.058;2023-04-25T12:22:37;2.37;;;1.40;;
10041;SDS011;5061;49.068;12.058;2023-04-25T12:25:57;2.13;;;1.83;;
10041;SDS011;5061;49.068;12.058;2023-04-25T12:29:22;5.00;;;1.97;;
10041;SDS011;5061;49.068;12.058;2023-04-25T12:32:43;1.50;;;1.30;;
10041;SDS011;5061;49.068;12.058;2023-04-25T12:36:04;6.73;;;2.60;;
10041;SDS011;5061;49.068;12.058;2023-04-25T12:39:29;4.20;;;1.90;;
10041;SDS011;5061;49.068;12.058;2023-04-25T12:42:49;2.23;;;2.00;;
10041;SDS011;5061;49.068;12.058;2023-04-25T12:46:11;1.50;;;1.37;;
10041;SDS011;5061;49.068;12.058;2023-04-25T12:49:31;2.10;;;1.90;;
10041;SDS011;5061;49.068;12.058;2023-04-25T12:52:52;3.13;;;2.00;;
10041;SDS011;5061;49.068;12.058;2023-04-25T12:56:12;1.83;;;1.73;;
10041;SDS011;5061;49.068;12.058;2023-04-25T12:59:36;2.37;;;1.80;;
10041;SDS011;5061;49.068;12.058;2023-04-25T13:02:57;2.50;;;2.10;;
10041;SDS011;5061;49.068;12.058;2023-04-25T13:06:18;2.33;;;2.03;;
10041;SDS011;5061;49.068;12.058;2023-04-25T13:09:39;2.13;;;1.63;;
10041;SDS011;5061;49.068;12.058;2023-04-25T13:13:00;2.00;;;1.90;;
10041;SDS011;5061;49.068;12.058;2023-04-25T13:16:21;1.90;;;1.70;;
10041;SDS011;5061;49.068;12.058;2023-04-25T13:19:42;2.90;;;2.10;;
10041;SDS011;5061;49.068;12.058;2023-04-25T13:23:02;2.90;;;2.10;;
10041;SDS011;5061;49.068;12.058;2023-04-25T13:26:23;1.70;;;1.60;;
10041;SDS011;5061;49.068;12.058;2023-04-25T13:29:43;5.40;;;1.87;;
10041;SDS011;5061;49.068;12.058;2023-04-25T13:33:05;4.17;;;2.40;;
10041;SDS011;5061;49.068;12.058;2023-04-25T13:36:26;8.00;;;2.00;;
10041;SDS011;5061;49.068;12.058;2023-04-25T13:39:47;3.50;;;2.50;;
10041;SDS011;5061;49.068;12.058;2023-04-25T13:43:08;3.30;;;2.43;;
10041;SDS011;5061;49.068;12.058;2023-04-25T13:46:29;3.30;;;2.30;;
10041;SDS011;5061;49.068;12.058;2023-04-25T13:49:49;1.90;;;1.80;;
10041;SDS011;5061;49.068;12.058;2023-04-25T13:53:10;2.83;;;2.30;;
10041;SDS011;5061;49.068;12.058;2023-04-25T13:56:32;4.30;;;2.10;;
10041;SDS011;5061;49.068;12.058;2023-04-25T13:59:52;3.43;;;2.00;;
10041;SDS011;5061;49.068;12.058;2023-04-25T14:03:16;2.17;;;1.80;;
10041;SDS011;5061;49.068;12.058;2023-04-25T14:06:47;1.57;;;1.47;;
10041;SDS011;5061;49.068;12.058;2023-04-25T14:10:08;2.37;;;1.90;;
10041;SDS011;5061;49.068;12.058;2023-04-25T14:13:34;5.30;;;1.80;;
10041;SDS011;5061;49.068;12.058;2023-04-25T14:16:56;4.63;;;1.80;;
10041;SDS011;5061;49.068;12.058;2023-04-25T14:20:17;2.30;;;1.40;;
10041;SDS011;5061;49.068;12.058;2023-04-25T14:23:44;2.03;;;1.40;;
10041;SDS011;5061;49.068;12.058;2023-04-25T14:27:07;1.70;;;1.40;;
10041;SDS011;5061;49.068;12.058;2023-04-25T14:30:34;1.40;;;1.30;;
10041;SDS011;5061;49.068;12.058;2023-04-25T14:33:57;1.90;;;1.30;;
10041;SDS011;5061;49.068;12.058;2023-04-25T14:37:18;2.90;;;1.73;;
10041;SDS011;5061;49.068;12.058;2023-04-25T14:40:38;1.60;;;1.40;;
10041;SDS011;5061;49.068;12.058;2023-04-25T14:43:59;1.87;;;1.30;;
10041;SDS011;5061;49.068;12.058;2023-04-25T14:47:20;1.60;;;1.10;;
10041;SDS011;5061;49.068;12.058;2023-04-25T14:50:40;1.70;;;1.60;;
10041;SDS011;5061;49.068;12.058;2023-04-25T14:54:01;1.67;;;1.30;;
10041;SDS011;5061;49.068;12.058;2023-04-25T14:57:22;3.03;;;1.57;;
10041;SDS011;5061;49.068;12.058;2023-04-25T15:00:42;1.30;;;1.20;;
10041;SDS011;5061;49.068;12.058;2023-04-25T15:04:04;1.40;;;1.30;;
10041;SDS011;5061;49.068;12.058;2023-04-25T15:07:24;1.60;;;1.50;;
10041;SDS011;5061;49.068;12.058;2023-04-25T15:10:45;1.40;;;1.30;;
10041;SDS011;5061;49.068;12.058;2023-04-25T15:14:07;1.77;;;1.40;;
10041;SDS011;5061;49.068;12.058;2023-04-25T15:17:27;1.30;;;1.20;;
10041;SDS011;5061;49.068;12.058;2023-04-25T15:20:51;1.23;;;1.13;;
10041;SDS011;5061;49.068;12.058;2023-04-25T15:24:12;2.17;;;1.30;;
10041;SDS011;5061;49.068;12.058;2023-04-25T15:27:35;1.20;;;1.10;;
10041;SDS011;5061;49.068;12.058;2023-04-25T15:31:03;1.30;;;1.20;;
10041;SDS011;5061;49.068;12.058;2023-04-25T15:34:24;1.67;;;1.50;;
10041;SDS011;5061;49.068;12.058;2023-04-25T15:37:44;1.27;;;1.17;;
10041;SDS011;5061;49.068;12.058;2023-04-25T15:41:05;1.10;;;1.00;;
10041;SDS011;5061;49.068;12.058;2023-04-25T15:44:26;1.87;;;1.27;;
10041;SDS011;5061;49.068;12.058;2023-04-25T15:47:46;1.50;;;1.20;;
10041;SDS011;5061;49.068;12.058;2023-04-25T15:51:07;2.00;;;1.30;;
10041;SDS011;5061;49.068;12.058;2023-04-25T15:54:28;1.50;;;1.40;;
10041;SDS011;5061;49.068;12.058;2023-04-25T15:57:49;1.33;;;1.23;;
10041;SDS011;5061;49.068;12.058;2023-04-25T16:01:10;2.20;;;1.40;;
10041;SDS011;5061;49.068;12.058;2023-04-25T16:04:30;1.83;;;1.63;;
10041;SDS011;5061;49.068;12.058;2023-04-25T16:07:54;2.03;;;1.33;;
10041;SDS011;5061;49.068;12.058;2023-04-25T16:11:14;1.47;;;1.37;;
10041;SDS011;5061;49.068;12.058;2023-04-25T16:14:35;1.90;;;1.33;;
10041;SDS011;5061;49.068;12.058;2023-04-25T16:17:56;1.60;;;1.50;;
10041;SDS011;5061;49.068;12.058;2023-04-25T16:21:16;1.97;;;1.47;;
10041;SDS011;5061;49.068;12.058;2023-04-25T16:24:38;2.73;;;1.60;;
10041;SDS011;5061;49.068;12.058;2023-04-25T16:27:58;1.27;;;1.00;;
10041;SDS011;5061;49.068;12.058;2023-04-25T16:31:19;2.40;;;1.70;;
10041;SDS011;5061;49.068;12.058;2023-04-25T16:34:40;1.57;;;1.23;;
10041;SDS011;5061;49.068;12.058;2023-04-25T16:38:00;2.50;;;1.50;;
10041;SDS011;5061;49.068;12.058;2023-04-25T16:41:21;2.37;;;1.60;;
10041;SDS011;5061;49.068;12.058;2023-04-25T16:44:44;1.50;;;1.30;;
10041;SDS011;5061;49.068;12.058;2023-04-25T16:48:04;2.43;;;2.03;;
10041;SDS011;5061;49.068;12.058;2023-04-25T16:51:25;1.63;;;1.53;;
10041;SDS011;5061;49.068;12.058;2023-04-25T16:54:49;2.40;;;1.80;;
10041;SDS011;5061;49.068;12.058;2023-04-25T16:58:10;1.73;;;1.30;;
10041;SDS011;5061;49.068;12.058;2023-04-25T17:01:33;2.50;;;1.57;;
10041;SDS011;5061;49.068;12.058;2023-04-25T17:04:55;1.53;;;1.40;;
10041;SDS011;5061;49.068;12.058;2023-04-25T17:08:15;2.70;;;1.80;;
10041;SDS011;5061;49.068;12.058;2023-04-25T17:11:36;2.00;;;1.73;;
10041;SDS011;5061;49.068;12.058;2023-04-25T17:14:57;1.80;;;1.70;;
10041;SDS011;5061;49.068;12.058;2023-04-25T17:18:19;2.00;;;1.57;;
10041;SDS011;5061;49.068;12.058;2023-04-25T17:21:41;1.70;;;1.60;;
10041;SDS011;5061;49.068;12.058;2023-04-25T17:25:02;3.30;;;1.70;;
10041;SDS011;5061;49.068;12.058;2023-04-25T17:28:23;1.67;;;1.50;;
10041;SDS011;5061;49.068;12.058;2023-04-25T17:31:43;4.70;;;1.60;;
10041;SDS011;5061;49.068;12.058;2023-04-25T17:35:04;1.87;;;1.63;;
10041;SDS011;5061;49.068;12.058;2023-04-25T17:38:25;1.57;;;1.40;;
10041;SDS011;5061;49.068;12.058;2023-04-25T17:41:46;2.20;;;1.70;;
10041;SDS011;5061;49.068;12.058;2023-04-25T17:45:07;1.83;;;1.73;;
10041;SDS011;5061;49.068;12.058;2023-04-25T17:48:28;1.80;;;1.43;;
10041;SDS011;5061;49.068;12.058;2023-04-25T17:51:50;2.30;;;1.70;;
10041;SDS011;5061;49.068;12.058;2023-04-25T17:55:11;1.47;;;1.37;;
10041;SDS011;5061;49.068;12.058;2023-04-25T17:58:31;6.53;;;1.90;;
10041;SDS011;5061;49.068;12.058;2023-04-25T18:01:52;1.53;;;1.40;;
10041;SDS011;5061;49.068;12.058;2023-04-25T18:05:13;1.73;;;1.30;;
10041;SDS011;5061;49.068;12.058;2023-04-25T18:08:34;2.37;;;1.83;;
10041;SDS011;5061;49.068;12.058;2023-04-25T18:11:55;2.63;;;2.10;;
10041;SDS011;5061;49.068;12.058;2023-04-25T18:15:15;6.87;;;2.20;;
10041;SDS011;5061;49.068;12.058;2023-04-25T18:18:36;2.50;;;1.80;;
10041;SDS011;5061;49.068;12.058;2023-04-25T18:21:57;3.60;;;2.00;;
10041;SDS011;5061;49.068;12.058;2023-04-25T18:25:17;2.00;;;1.80;;
10041;SDS011;5061;49.068;12.058;2023-04-25T18:28:38;3.30;;;2.40;;
10041;SDS011;5061;49.068;12.058;2023-04-25T18:31:59;1.93;;;1.83;;
10041;SDS011;5061;49.068;12.058;2023-04-25T18:35:20;2.70;;;2.03;;
10041;SDS011;5061;49.068;12.058;2023-04-25T18:38:41;3.60;;;2.50;;
10041;SDS011;5061;49.068;12.058;2023-04-25T18:42:02;2.07;;;1.50;;
10041;SDS011;5061;49.068;12.058;2023-04-25T18:45:25;2.10;;;1.90;;
10041;SDS011;5061;49.068;12.058;2023-04-25T18:48:46;2.07;;;1.87;;
10041;SDS011;5061;49.068;12.058;2023-04-25T18:52:08;4.43;;;2.17;;
10041;SDS011;5061;49.068;12.058;2023-04-25T18:55:30;4.33;;;2.10;;
10041;SDS011;5061;49.068;12.058;2023-04-25T18:58:54;2.70;;;2.40;;
10041;SDS011;5061;49.068;12.058;2023-04-25T19:02:15;2.97;;;2.50;;
10041;SDS011;5061;49.068;12.058;2023-04-25T19:05:36;3.40;;;2.60;;
10041;SDS011;5061;49.068;12.058;2023-04-25T19:08:57;2.70;;;2.20;;
10041;SDS011;5061;49.068;12.058;2023-04-25T19:12:18;4.30;;;2.33;;
10041;SDS011;5061;49.068;12.058;2023-04-25T19:15:40;3.10;;;2.40;;
10041;SDS011;5061;49.068;12.058;2023-04-25T19:19:01;4.17;;;2.23;;
10041;SDS011;5061;49.068;12.058;2023-04-25T19:22:21;3.40;;;2.17;;
10041;SDS011;5061;49.068;12.058;2023-04-25T19:25:46;2.30;;;2.10;;
10041;SDS011;5061;49.068;12.058;2023-04-25T19:29:08;1.87;;;1.60;;
10041;SDS011;5061;49.068;12.058;2023-04-25T19:32:31;2.17;;;1.87;;
10041;SDS011;5061;49.068;12.058;2023-04-25T19:35:51;1.90;;;1.47;;
10041;SDS011;5061;49.068;12.058;2023-04-25T19:39:12;1.77;;;1.50;;
10041;SDS011;5061;49.068;12.058;2023-04-25T19:42:32;1.83;;;1.70;;
10041;SDS011;5061;49.068;12.058;2023-04-25T19:45:53;2.03;;;1.40;;
10041;SDS011;5061;49.068;12.058;2023-04-25T19:49:14;1.80;;;1.70;;
10041;SDS011;5061;49.068;12.058;2023-04-25T19:52:35;1.73;;;1.63;;
10041;SDS011;5061;49.068;12.058;2023-04-25T19:55:56;3.40;;;1.40;;
10041;SDS011;5061;49.068;12.058;2023-04-25T19:59:17;2.50;;;2.30;;
10041;SDS011;5061;49.068;12.058;2023-04-25T20:02:37;5.40;;;1.83;;
10041;SDS011;5061;49.068;12.058;2023-04-25T20:06:05;2.70;;;2.40;;
10041;SDS011;5061;49.068;12.058;2023-04-25T20:09:25;2.47;;;1.63;;
10041;SDS011;5061;49.068;12.058;2023-04-25T20:12:46;2.20;;;1.80;;
10041;SDS011;5061;49.068;12.058;2023-04-25T20:16:07;3.23;;;2.00;;
10041;SDS011;5061;49.068;12.058;2023-04-25T20:19:28;2.27;;;1.80;;
10041;SDS011;5061;49.068;12.058;2023-04-25T20:22:49;2.80;;;1.90;;